KSDF/SDF METAR and TAF weather

Enter ICAO airport designator
Station Type Date Time Source
KSDF METAR 2021/09/24 02:56 UTC NOAA

KSDF 240256Z 15004KT 10SM CLR 14/09 A3006 RMK AO2 SLP177 T01440089 51012


Station Type Date Time Source
KSDF Decoded METAR 2021/09/24 02:56 UTC NOAA

STANDIFORD FIELD, KY, United States (KSDF) 38-11N 085-44W 146M
Sep 23, 2021 - 10:56 PM EDT / 2021.09.24 0256 UTC
Wind: from the SSE (150 degrees) at 5 MPH (4 KT):0
Visibility: 10 mile(s):0
Sky conditions: clear
Temperature: 57.9 F (14.4 C)
Dew Point: 48.0 F (8.9 C)
Relative Humidity: 69%
Pressure (altimeter): 30.06 in. Hg (1017 hPa)
Pressure tendency: 0.04 inches (1.2 hPa) higher than three hours ago
ob: KSDF 240256Z 15004KT 10SM CLR 14/09 A3006 RMK AO2 SLP177 T01440089 51012
cycle: 3

Station Type Date Time Source
KSDF TAF 2021/09/23 18:36 UTC NOAA

TAF KSDF 231733Z 2318/2424 27013G19KT P6SM SCT040
FM232300 23005KT P6SM SKC

Example: see airport list